sensor_id;sensor_type;location;lat;lon;timestamp;temperature;humidity
42031;DHT22;27709;52.036;5.906;2023-04-15T00:00:25;7.50;99.90
42031;DHT22;27709;52.036;5.906;2023-04-15T00:02:50;7.40;99.90
42031;DHT22;27709;52.036;5.906;2023-04-15T00:05:17;7.40;99.90
42031;DHT22;27709;52.036;5.906;2023-04-15T00:07:42;7.30;99.90
42031;DHT22;27709;52.036;5.906;2023-04-15T00:10:08;7.30;99.90
42031;DHT22;27709;52.036;5.906;2023-04-15T00:12:33;7.30;99.90
42031;DHT22;27709;52.036;5.906;2023-04-15T00:15:00;7.30;99.90
42031;DHT22;27709;52.036;5.906;2023-04-15T00:17:26;7.30;99.90
42031;DHT22;27709;52.036;5.906;2023-04-15T00:19:52;7.40;99.90
42031;DHT22;27709;52.036;5.906;2023-04-15T00:22:17;7.40;99.90
42031;DHT22;27709;52.036;5.906;2023-04-15T00:24:43;7.40;99.90
42031;DHT22;27709;52.036;5.906;2023-04-15T00:27:08;7.30;99.90
42031;DHT22;27709;52.036;5.906;2023-04-15T00:29:34;7.20;99.90
42031;DHT22;27709;52.036;5.906;2023-04-15T00:32:00;7.10;99.90
42031;DHT22;27709;52.036;5.906;2023-04-15T00:34:25;7.00;99.90
42031;DHT22;27709;52.036;5.906;2023-04-15T00:36:52;6.90;99.90
42031;DHT22;27709;52.036;5.906;2023-04-15T00:39:17;6.90;99.90
42031;DHT22;27709;52.036;5.906;2023-04-15T00:41:50;6.80;99.90
42031;DHT22;27709;52.036;5.906;2023-04-15T00:44:16;6.80;99.90
42031;DHT22;27709;52.036;5.906;2023-04-15T00:46:43;6.70;99.90
42031;DHT22;27709;52.036;5.906;2023-04-15T00:49:09;6.70;99.90
42031;DHT22;27709;52.036;5.906;2023-04-15T00:51:35;6.70;99.90
42031;DHT22;27709;52.036;5.906;2023-04-15T00:54:02;6.60;99.90
42031;DHT22;27709;52.036;5.906;2023-04-15T00:56:28;6.60;99.90
42031;DHT22;27709;52.036;5.906;2023-04-15T00:58:53;6.50;99.90
42031;DHT22;27709;52.036;5.906;2023-04-15T01:01:22;6.50;99.90
42031;DHT22;27709;52.036;5.906;2023-04-15T01:03:49;6.50;99.90
42031;DHT22;27709;52.036;5.906;2023-04-15T01:06:15;6.50;99.90
42031;DHT22;27709;52.036;5.906;2023-04-15T01:08:41;6.40;99.90
42031;DHT22;27709;52.036;5.906;2023-04-15T01:11:07;6.40;99.90
42031;DHT22;27709;52.036;5.906;2023-04-15T01:13:32;6.30;99.90
42031;DHT22;27709;52.036;5.906;2023-04-15T01:15:58;6.30;99.90
42031;DHT22;27709;52.036;5.906;2023-04-15T01:18:28;6.20;99.90
42031;DHT22;27709;52.036;5.906;2023-04-15T01:20:54;6.20;99.90
42031;DHT22;27709;52.036;5.906;2023-04-15T01:23:20;6.20;99.90
42031;DHT22;27709;52.036;5.906;2023-04-15T01:25:47;6.20;99.90
42031;DHT22;27709;52.036;5.906;2023-04-15T01:28:13;6.20;99.90
42031;DHT22;27709;52.036;5.906;2023-04-15T01:30:40;6.20;99.90
42031;DHT22;27709;52.036;5.906;2023-04-15T01:33:06;6.20;99.90
42031;DHT22;27709;52.036;5.906;2023-04-15T01:35:32;6.10;99.90
42031;DHT22;27709;52.036;5.906;2023-04-15T01:38:00;6.20;99.90
42031;DHT22;27709;52.036;5.906;2023-04-15T01:40:27;6.10;99.90
42031;DHT22;27709;52.036;5.906;2023-04-15T01:42:53;6.00;99.90
42031;DHT22;27709;52.036;5.906;2023-04-15T01:45:18;6.00;99.90
42031;DHT22;27709;52.036;5.906;2023-04-15T01:47:44;6.00;99.90
42031;DHT22;27709;52.036;5.906;2023-04-15T01:50:09;6.00;99.90
42031;DHT22;27709;52.036;5.906;2023-04-15T01:52:35;6.00;99.90
42031;DHT22;27709;52.036;5.906;2023-04-15T01:55:00;6.00;99.90
42031;DHT22;27709;52.036;5.906;2023-04-15T01:57:26;6.00;99.90
42031;DHT22;27709;52.036;5.906;2023-04-15T01:59:51;6.00;99.90
42031;DHT22;27709;52.036;5.906;2023-04-15T02:02:17;5.90;99.90
42031;DHT22;27709;52.036;5.906;2023-04-15T02:04:42;5.80;99.90
42031;DHT22;27709;52.036;5.906;2023-04-15T02:07:08;5.70;99.90
42031;DHT22;27709;52.036;5.906;2023-04-15T02:09:34;5.70;99.90
42031;DHT22;27709;52.036;5.906;2023-04-15T02:11:59;5.60;99.90
42031;DHT22;27709;52.036;5.906;2023-04-15T02:14:25;5.50;99.90
42031;DHT22;27709;52.036;5.906;2023-04-15T02:16:51;5.50;99.90
42031;DHT22;27709;52.036;5.906;2023-04-15T02:19:16;5.50;99.90
42031;DHT22;27709;52.036;5.906;2023-04-15T02:21:42;5.50;99.90
42031;DHT22;27709;52.036;5.906;2023-04-15T02:24:07;5.40;99.90
42031;DHT22;27709;52.036;5.906;2023-04-15T02:26:33;5.50;99.90
42031;DHT22;27709;52.036;5.906;2023-04-15T02:28:58;5.60;99.90
42031;DHT22;27709;52.036;5.906;2023-04-15T02:31:24;5.70;99.90
42031;DHT22;27709;52.036;5.906;2023-04-15T02:33:50;5.70;99.90
42031;DHT22;27709;52.036;5.906;2023-04-15T02:36:17;5.80;99.90
42031;DHT22;27709;52.036;5.906;2023-04-15T02:38:42;5.80;99.90
42031;DHT22;27709;52.036;5.906;2023-04-15T02:41:08;5.90;99.90
42031;DHT22;27709;52.036;5.906;2023-04-15T02:43:34;5.90;99.90
42031;DHT22;27709;52.036;5.906;2023-04-15T02:46:00;5.90;99.90
42031;DHT22;27709;52.036;5.906;2023-04-15T02:48:25;5.90;99.90
42031;DHT22;27709;52.036;5.906;2023-04-15T02:50:51;5.90;99.90
42031;DHT22;27709;52.036;5.906;2023-04-15T02:53:16;5.90;99.90
42031;DHT22;27709;52.036;5.906;2023-04-15T02:55:42;5.90;99.90
42031;DHT22;27709;52.036;5.906;2023-04-15T02:58:11;5.80;99.90
42031;DHT22;27709;52.036;5.906;2023-04-15T03:00:36;5.80;99.90
42031;DHT22;27709;52.036;5.906;2023-04-15T03:03:02;5.80;99.90
42031;DHT22;27709;52.036;5.906;2023-04-15T03:05:28;5.70;99.90
42031;DHT22;27709;52.036;5.906;2023-04-15T03:07:55;5.70;99.90
42031;DHT22;27709;52.036;5.906;2023-04-15T03:10:21;5.60;99.90
42031;DHT22;27709;52.036;5.906;2023-04-15T03:12:47;5.60;99.90
42031;DHT22;27709;52.036;5.906;2023-04-15T03:15:13;5.60;99.90
42031;DHT22;27709;52.036;5.906;2023-04-15T03:17:39;5.60;99.90
42031;DHT22;27709;52.036;5.906;2023-04-15T03:20:05;5.60;99.90
42031;DHT22;27709;52.036;5.906;2023-04-15T03:22:31;5.60;99.90
42031;DHT22;27709;52.036;5.906;2023-04-15T03:24:56;5.50;99.90
42031;DHT22;27709;52.036;5.906;2023-04-15T03:27:22;5.50;99.90
42031;DHT22;27709;52.036;5.906;2023-04-15T03:29:47;5.60;99.90
42031;DHT22;27709;52.036;5.906;2023-04-15T03:32:13;5.50;99.90
42031;DHT22;27709;52.036;5.906;2023-04-15T03:34:39;5.50;99.90
42031;DHT22;27709;52.036;5.906;2023-04-15T03:37:05;5.50;99.90
42031;DHT22;27709;52.036;5.906;2023-04-15T03:39:31;5.50;99.90
42031;DHT22;27709;52.036;5.906;2023-04-15T03:41:57;5.50;99.90
42031;DHT22;27709;52.036;5.906;2023-04-15T03:44:23;5.50;99.90
42031;DHT22;27709;52.036;5.906;2023-04-15T03:46:49;5.50;99.90
42031;DHT22;27709;52.036;5.906;2023-04-15T03:49:14;5.50;99.90
42031;DHT22;27709;52.036;5.906;2023-04-15T03:51:40;5.40;99.90
42031;DHT22;27709;52.036;5.906;2023-04-15T03:54:05;5.40;99.90
42031;DHT22;27709;52.036;5.906;2023-04-15T03:56:31;5.40;99.90
42031;DHT22;27709;52.036;5.906;2023-04-15T03:58:56;5.40;99.90
42031;DHT22;27709;52.036;5.906;2023-04-15T04:01:22;5.40;99.90
42031;DHT22;27709;52.036;5.906;2023-04-15T04:03:47;5.40;99.90
42031;DHT22;27709;52.036;5.906;2023-04-15T04:06:13;5.40;99.90
42031;DHT22;27709;52.036;5.906;2023-04-15T04:08:39;5.30;99.90
42031;DHT22;27709;52.036;5.906;2023-04-15T04:11:04;5.30;99.90
42031;DHT22;27709;52.036;5.906;2023-04-15T04:13:30;5.30;99.90
42031;DHT22;27709;52.036;5.906;2023-04-15T04:15:56;5.30;99.90
42031;DHT22;27709;52.036;5.906;2023-04-15T04:18:22;5.30;99.90
42031;DHT22;27709;52.036;5.906;2023-04-15T04:20:47;5.30;99.90
42031;DHT22;27709;52.036;5.906;2023-04-15T04:23:18;5.30;99.90
42031;DHT22;27709;52.036;5.906;2023-04-15T04:25:47;5.30;99.90
42031;DHT22;27709;52.036;5.906;2023-04-15T04:28:14;5.30;99.90
42031;DHT22;27709;52.036;5.906;2023-04-15T04:30:39;5.30;99.90
42031;DHT22;27709;52.036;5.906;2023-04-15T04:33:08;5.30;99.90
42031;DHT22;27709;52.036;5.906;2023-04-15T04:35:33;5.30;99.90
42031;DHT22;27709;52.036;5.906;2023-04-15T04:38:02;5.40;99.90
42031;DHT22;27709;52.036;5.906;2023-04-15T04:40:28;5.40;99.90
42031;DHT22;27709;52.036;5.906;2023-04-15T04:42:53;5.30;99.90
42031;DHT22;27709;52.036;5.906;2023-04-15T04:45:23;5.30;99.90
42031;DHT22;27709;52.036;5.906;2023-04-15T04:47:50;5.30;99.90
42031;DHT22;27709;52.036;5.906;2023-04-15T04:50:15;5.30;99.90
42031;DHT22;27709;52.036;5.906;2023-04-15T04:52:41;5.30;99.90
42031;DHT22;27709;52.036;5.906;2023-04-15T04:55:06;5.30;99.90
42031;DHT22;27709;52.036;5.906;2023-04-15T04:57:33;5.30;99.90
42031;DHT22;27709;52.036;5.906;2023-04-15T05:00:00;5.40;99.90
42031;DHT22;27709;52.036;5.906;2023-04-15T05:02:26;5.40;99.90
42031;DHT22;27709;52.036;5.906;2023-04-15T05:04:52;5.40;99.90
42031;DHT22;27709;52.036;5.906;2023-04-15T05:07:18;5.40;99.90
42031;DHT22;27709;52.036;5.906;2023-04-15T05:09:45;5.50;99.90
42031;DHT22;27709;52.036;5.906;2023-04-15T05:12:10;5.50;99.90
42031;DHT22;27709;52.036;5.906;2023-04-15T05:14:39;5.60;99.90
42031;DHT22;27709;52.036;5.906;2023-04-15T05:17:05;5.60;99.90
42031;DHT22;27709;52.036;5.906;2023-04-15T05:19:31;5.60;99.90
42031;DHT22;27709;52.036;5.906;2023-04-15T05:21:57;5.70;99.90
42031;DHT22;27709;52.036;5.906;2023-04-15T05:24:22;5.80;99.90
42031;DHT22;27709;52.036;5.906;2023-04-15T05:26:48;5.90;99.90
42031;DHT22;27709;52.036;5.906;2023-04-15T05:29:13;6.00;99.90
42031;DHT22;27709;52.036;5.906;2023-04-15T05:31:39;6.20;99.90
42031;DHT22;27709;52.036;5.906;2023-04-15T05:34:04;6.30;99.90
42031;DHT22;27709;52.036;5.906;2023-04-15T05:36:31;6.40;99.90
42031;DHT22;27709;52.036;5.906;2023-04-15T05:38:57;6.60;99.90
42031;DHT22;27709;52.036;5.906;2023-04-15T05:41:22;6.90;99.90
42031;DHT22;27709;52.036;5.906;2023-04-15T05:43:48;7.10;99.90
42031;DHT22;27709;52.036;5.906;2023-04-15T05:46:13;7.40;99.90
42031;DHT22;27709;52.036;5.906;2023-04-15T05:48:39;7.60;99.90
42031;DHT22;27709;52.036;5.906;2023-04-15T05:51:04;7.80;99.90
42031;DHT22;27709;52.036;5.906;2023-04-15T05:53:30;7.90;99.90
42031;DHT22;27709;52.036;5.906;2023-04-15T05:55:56;8.10;99.90
42031;DHT22;27709;52.036;5.906;2023-04-15T05:58:22;8.30;99.90
42031;DHT22;27709;52.036;5.906;2023-04-15T06:00:47;8.40;99.90
42031;DHT22;27709;52.036;5.906;2023-04-15T06:03:13;8.60;99.90
42031;DHT22;27709;52.036;5.906;2023-04-15T06:05:38;8.70;99.90
42031;DHT22;27709;52.036;5.906;2023-04-15T06:08:12;8.90;99.90
42031;DHT22;27709;52.036;5.906;2023-04-15T06:10:38;9.10;99.90
42031;DHT22;27709;52.036;5.906;2023-04-15T06:13:03;9.30;99.90
42031;DHT22;27709;52.036;5.906;2023-04-15T06:15:29;9.40;99.90
42031;DHT22;27709;52.036;5.906;2023-04-15T06:17:54;9.50;99.90
42031;DHT22;27709;52.036;5.906;2023-04-15T06:20:20;9.60;99.90
42031;DHT22;27709;52.036;5.906;2023-04-15T06:22:45;9.70;99.90
42031;DHT22;27709;52.036;5.906;2023-04-15T06:25:11;9.70;99.90
42031;DHT22;27709;52.036;5.906;2023-04-15T06:27:36;9.80;99.90
42031;DHT22;27709;52.036;5.906;2023-04-15T06:30:02;9.80;99.90
42031;DHT22;27709;52.036;5.906;2023-04-15T06:32:28;9.80;99.90
42031;DHT22;27709;52.036;5.906;2023-04-15T06:34:54;9.80;99.90
42031;DHT22;27709;52.036;5.906;2023-04-15T06:37:19;9.80;99.90
42031;DHT22;27709;52.036;5.906;2023-04-15T06:39:45;9.80;99.90
42031;DHT22;27709;52.036;5.906;2023-04-15T06:42:10;9.80;99.90
42031;DHT22;27709;52.036;5.906;2023-04-15T06:44:36;9.80;99.90
42031;DHT22;27709;52.036;5.906;2023-04-15T06:47:02;9.80;99.90
42031;DHT22;27709;52.036;5.906;2023-04-15T06:49:28;9.80;99.90
42031;DHT22;27709;52.036;5.906;2023-04-15T06:51:53;9.70;99.90
42031;DHT22;27709;52.036;5.906;2023-04-15T06:54:18;9.70;99.90
42031;DHT22;27709;52.036;5.906;2023-04-15T06:56:44;9.70;99.90
42031;DHT22;27709;52.036;5.906;2023-04-15T06:59:09;9.70;99.90
42031;DHT22;27709;52.036;5.906;2023-04-15T07:01:35;9.60;99.90
42031;DHT22;27709;52.036;5.906;2023-04-15T07:04:00;9.50;99.90
42031;DHT22;27709;52.036;5.906;2023-04-15T07:06:26;9.50;99.90
42031;DHT22;27709;52.036;5.906;2023-04-15T07:08:52;9.50;99.90
42031;DHT22;27709;52.036;5.906;2023-04-15T07:11:18;9.50;99.90
42031;DHT22;27709;52.036;5.906;2023-04-15T07:13:44;9.50;99.90
42031;DHT22;27709;52.036;5.906;2023-04-15T07:16:09;9.50;99.90
42031;DHT22;27709;52.036;5.906;2023-04-15T07:18:35;9.50;99.90
42031;DHT22;27709;52.036;5.906;2023-04-15T07:21:00;9.50;99.90
42031;DHT22;27709;52.036;5.906;2023-04-15T07:23:26;9.40;99.90
42031;DHT22;27709;52.036;5.906;2023-04-15T07:25:52;9.40;99.90
42031;DHT22;27709;52.036;5.906;2023-04-15T07:28:17;9.50;99.90
42031;DHT22;27709;52.036;5.906;2023-04-15T07:30:43;9.50;99.90
42031;DHT22;27709;52.036;5.906;2023-04-15T07:33:08;9.50;99.90
42031;DHT22;27709;52.036;5.906;2023-04-15T07:35:34;9.50;99.90
42031;DHT22;27709;52.036;5.906;2023-04-15T07:37:59;9.60;99.90
42031;DHT22;27709;52.036;5.906;2023-04-15T07:40:25;9.60;99.90
42031;DHT22;27709;52.036;5.906;2023-04-15T07:42:50;9.80;99.90
42031;DHT22;27709;52.036;5.906;2023-04-15T07:45:16;9.80;99.90
42031;DHT22;27709;52.036;5.906;2023-04-15T07:47:42;9.90;99.90
42031;DHT22;27709;52.036;5.906;2023-04-15T07:50:08;10.00;99.90
42031;DHT22;27709;52.036;5.906;2023-04-15T07:52:34;10.20;99.90
42031;DHT22;27709;52.036;5.906;2023-04-15T07:55:06;10.40;99.90
42031;DHT22;27709;52.036;5.906;2023-04-15T07:57:35;10.50;99.90
42031;DHT22;27709;52.036;5.906;2023-04-15T08:00:01;10.60;99.90
42031;DHT22;27709;52.036;5.906;2023-04-15T08:02:30;10.80;99.90
42031;DHT22;27709;52.036;5.906;2023-04-15T08:04:55;11.10;99.90
42031;DHT22;27709;52.036;5.906;2023-04-15T08:07:22;11.40;99.90
42031;DHT22;27709;52.036;5.906;2023-04-15T08:09:47;11.70;99.90
42031;DHT22;27709;52.036;5.906;2023-04-15T08:12:13;11.90;99.90
42031;DHT22;27709;52.036;5.906;2023-04-15T08:14:39;12.00;99.90
42031;DHT22;27709;52.036;5.906;2023-04-15T08:17:04;12.20;99.90
42031;DHT22;27709;52.036;5.906;2023-04-15T08:19:30;12.30;99.90
42031;DHT22;27709;52.036;5.906;2023-04-15T08:21:56;12.20;99.90
42031;DHT22;27709;52.036;5.906;2023-04-15T08:24:22;12.20;99.90
42031;DHT22;27709;52.036;5.906;2023-04-15T08:26:47;12.10;99.90
42031;DHT22;27709;52.036;5.906;2023-04-15T08:29:13;12.10;99.90
42031;DHT22;27709;52.036;5.906;2023-04-15T08:31:38;12.10;99.90
42031;DHT22;27709;52.036;5.906;2023-04-15T08:34:03;12.10;99.90
42031;DHT22;27709;52.036;5.906;2023-04-15T08:36:29;12.00;99.90
42031;DHT22;27709;52.036;5.906;2023-04-15T08:38:56;12.00;99.90
42031;DHT22;27709;52.036;5.906;2023-04-15T08:41:22;12.20;99.90
42031;DHT22;27709;52.036;5.906;2023-04-15T08:43:51;12.20;99.90
42031;DHT22;27709;52.036;5.906;2023-04-15T08:46:17;12.30;99.90
42031;DHT22;27709;52.036;5.906;2023-04-15T08:48:43;12.30;99.90
42031;DHT22;27709;52.036;5.906;2023-04-15T08:51:11;12.30;99.90
42031;DHT22;27709;52.036;5.906;2023-04-15T08:53:40;12.30;99.90
42031;DHT22;27709;52.036;5.906;2023-04-15T08:56:06;12.40;99.90
42031;DHT22;27709;52.036;5.906;2023-04-15T08:58:32;12.50;99.90
42031;DHT22;27709;52.036;5.906;2023-04-15T09:00:58;12.50;99.90
42031;DHT22;27709;52.036;5.906;2023-04-15T09:03:24;12.50;99.90
42031;DHT22;27709;52.036;5.906;2023-04-15T09:05:50;12.60;99.90
42031;DHT22;27709;52.036;5.906;2023-04-15T09:08:16;12.50;99.90
42031;DHT22;27709;52.036;5.906;2023-04-15T09:10:41;12.40;99.90
42031;DHT22;27709;52.036;5.906;2023-04-15T09:13:07;12.30;99.90
42031;DHT22;27709;52.036;5.906;2023-04-15T09:15:33;12.20;99.90
42031;DHT22;27709;52.036;5.906;2023-04-15T09:18:02;12.20;99.90
42031;DHT22;27709;52.036;5.906;2023-04-15T09:20:28;12.30;99.90
42031;DHT22;27709;52.036;5.906;2023-04-15T09:22:54;12.40;99.90
42031;DHT22;27709;52.036;5.906;2023-04-15T09:27:58;12.90;99.90
42031;DHT22;27709;52.036;5.906;2023-04-15T09:30:24;13.10;99.90
42031;DHT22;27709;52.036;5.906;2023-04-15T09:32:50;13.10;99.90
42031;DHT22;27709;52.036;5.906;2023-04-15T09:35:16;13.30;99.90
42031;DHT22;27709;52.036;5.906;2023-04-15T09:37:42;13.50;99.90
42031;DHT22;27709;52.036;5.906;2023-04-15T09:40:07;13.70;99.90
42031;DHT22;27709;52.036;5.906;2023-04-15T09:42:34;13.80;99.50
42031;DHT22;27709;52.036;5.906;2023-04-15T09:45:09;14.00;99.30
42031;DHT22;27709;52.036;5.906;2023-04-15T09:47:35;14.00;98.40
42031;DHT22;27709;52.036;5.906;2023-04-15T09:50:02;14.00;98.60
42031;DHT22;27709;52.036;5.906;2023-04-15T09:52:28;14.10;98.90
42031;DHT22;27709;52.036;5.906;2023-04-15T09:54:54;14.10;98.30
42031;DHT22;27709;52.036;5.906;2023-04-15T09:57:22;14.00;98.90
42031;DHT22;27709;52.036;5.906;2023-04-15T09:59:48;14.00;98.20
42031;DHT22;27709;52.036;5.906;2023-04-15T10:02:14;14.00;99.10
42031;DHT22;27709;52.036;5.906;2023-04-15T10:04:40;14.10;98.90
42031;DHT22;27709;52.036;5.906;2023-04-15T10:07:07;14.40;98.70
42031;DHT22;27709;52.036;5.906;2023-04-15T10:09:34;14.50;97.80
42031;DHT22;27709;52.036;5.906;2023-04-15T10:12:04;14.60;98.20
42031;DHT22;27709;52.036;5.906;2023-04-15T10:14:32;14.70;98.20
42031;DHT22;27709;52.036;5.906;2023-04-15T10:16:57;14.80;97.30
42031;DHT22;27709;52.036;5.906;2023-04-15T10:19:24;15.00;97.90
42031;DHT22;27709;52.036;5.906;2023-04-15T10:21:50;15.50;98.10
42031;DHT22;27709;52.036;5.906;2023-04-15T10:24:16;15.90;97.50
42031;DHT22;27709;52.036;5.906;2023-04-15T10:26:41;16.40;95.90
42031;DHT22;27709;52.036;5.906;2023-04-15T10:29:08;16.60;95.60
42031;DHT22;27709;52.036;5.906;2023-04-15T10:31:34;16.70;94.60
42031;DHT22;27709;52.036;5.906;2023-04-15T10:34:05;16.90;94.50
42031;DHT22;27709;52.036;5.906;2023-04-15T10:36:31;16.90;93.20
42031;DHT22;27709;52.036;5.906;2023-04-15T10:38:57;16.50;93.90
42031;DHT22;27709;52.036;5.906;2023-04-15T10:41:23;16.30;95.20
42031;DHT22;27709;52.036;5.906;2023-04-15T10:43:50;16.10;95.00
42031;DHT22;27709;52.036;5.906;2023-04-15T10:46:17;16.00;94.80
42031;DHT22;27709;52.036;5.906;2023-04-15T10:49:05;16.10;94.30
42031;DHT22;27709;52.036;5.906;2023-04-15T10:51:31;16.20;94.00
42031;DHT22;27709;52.036;5.906;2023-04-15T10:53:59;16.30;93.60
42031;DHT22;27709;52.036;5.906;2023-04-15T10:56:26;16.40;94.30
42031;DHT22;27709;52.036;5.906;2023-04-15T10:58:52;16.30;93.70
42031;DHT22;27709;52.036;5.906;2023-04-15T11:01:20;16.00;93.70
42031;DHT22;27709;52.036;5.906;2023-04-15T11:03:47;15.90;93.90
42031;DHT22;27709;52.036;5.906;2023-04-15T11:06:13;15.60;94.50
42031;DHT22;27709;52.036;5.906;2023-04-15T11:11:19;15.70;95.30
42031;DHT22;27709;52.036;5.906;2023-04-15T11:13:48;16.00;94.90
42031;DHT22;27709;52.036;5.906;2023-04-15T11:16:14;16.40;94.30
42031;DHT22;27709;52.036;5.906;2023-04-15T11:18:40;16.60;92.30
42031;DHT22;27709;52.036;5.906;2023-04-15T11:21:06;16.60;92.90
42031;DHT22;27709;52.036;5.906;2023-04-15T11:25:58;16.50;91.50
42031;DHT22;27709;52.036;5.906;2023-04-15T11:28:24;16.30;91.80
42031;DHT22;27709;52.036;5.906;2023-04-15T11:30:50;16.10;92.30
42031;DHT22;27709;52.036;5.906;2023-04-15T11:33:16;16.00;92.40
42031;DHT22;27709;52.036;5.906;2023-04-15T11:35:42;15.80;92.90
42031;DHT22;27709;52.036;5.906;2023-04-15T11:38:09;15.70;93.50
42031;DHT22;27709;52.036;5.906;2023-04-15T11:40:36;15.70;92.80
42031;DHT22;27709;52.036;5.906;2023-04-15T11:43:05;15.80;92.90
42031;DHT22;27709;52.036;5.906;2023-04-15T11:45:31;15.90;93.60
42031;DHT22;27709;52.036;5.906;2023-04-15T11:50:32;16.00;93.00
42031;DHT22;27709;52.036;5.906;2023-04-15T11:52:58;16.20;92.10
42031;DHT22;27709;52.036;5.906;2023-04-15T11:55:24;16.40;92.00
42031;DHT22;27709;52.036;5.906;2023-04-15T11:57:52;16.50;90.50
42031;DHT22;27709;52.036;5.906;2023-04-15T12:00:29;16.40;90.80
42031;DHT22;27709;52.036;5.906;2023-04-15T12:03:10;16.40;91.80
42031;DHT22;27709;52.036;5.906;2023-04-15T12:05:35;16.30;91.90
42031;DHT22;27709;52.036;5.906;2023-04-15T12:08:01;16.20;91.50
42031;DHT22;27709;52.036;5.906;2023-04-15T12:10:27;16.00;91.90
42031;DHT22;27709;52.036;5.906;2023-04-15T12:12:53;15.90;91.80
42031;DHT22;27709;52.036;5.906;2023-04-15T12:15:22;15.70;91.70
42031;DHT22;27709;52.036;5.906;2023-04-15T12:17:48;15.60;92.40
42031;DHT22;27709;52.036;5.906;2023-04-15T12:20:19;15.60;91.90
42031;DHT22;27709;52.036;5.906;2023-04-15T12:22:45;15.50;93.10
42031;DHT22;27709;52.036;5.906;2023-04-15T12:25:11;15.60;93.00
42031;DHT22;27709;52.036;5.906;2023-04-15T12:27:36;15.60;92.60
42031;DHT22;27709;52.036;5.906;2023-04-15T12:30:05;15.50;91.90
42031;DHT22;27709;52.036;5.906;2023-04-15T12:32:35;15.40;92.50
42031;DHT22;27709;52.036;5.906;2023-04-15T12:35:01;15.50;92.90
42031;DHT22;27709;52.036;5.906;2023-04-15T12:37:26;15.60;92.50
42031;DHT22;27709;52.036;5.906;2023-04-15T12:39:52;15.50;92.60
42031;DHT22;27709;52.036;5.906;2023-04-15T12:42:18;15.40;92.80
42031;DHT22;27709;52.036;5.906;2023-04-15T12:44:44;15.30;93.70
42031;DHT22;27709;52.036;5.906;2023-04-15T12:47:10;15.30;93.50
42031;DHT22;27709;52.036;5.906;2023-04-15T12:49:36;15.20;94.20
42031;DHT22;27709;52.036;5.906;2023-04-15T12:52:02;15.20;92.90
42031;DHT22;27709;52.036;5.906;2023-04-15T12:54:28;15.10;93.40
42031;DHT22;27709;52.036;5.906;2023-04-15T12:56:54;14.90;92.90
42031;DHT22;27709;52.036;5.906;2023-04-15T12:59:19;14.70;93.40
42031;DHT22;27709;52.036;5.906;2023-04-15T13:01:46;14.60;93.70
42031;DHT22;27709;52.036;5.906;2023-04-15T13:04:12;14.60;94.50
42031;DHT22;27709;52.036;5.906;2023-04-15T13:06:37;14.60;94.40
42031;DHT22;27709;52.036;5.906;2023-04-15T13:09:02;14.70;94.60
42031;DHT22;27709;52.036;5.906;2023-04-15T13:11:28;14.70;94.60
42031;DHT22;27709;52.036;5.906;2023-04-15T13:13:56;14.70;94.60
42031;DHT22;27709;52.036;5.906;2023-04-15T13:16:22;14.70;94.70
42031;DHT22;27709;52.036;5.906;2023-04-15T13:18:47;14.70;94.70
42031;DHT22;27709;52.036;5.906;2023-04-15T13:21:13;14.80;95.00
42031;DHT22;27709;52.036;5.906;2023-04-15T13:23:40;14.80;93.60
42031;DHT22;27709;52.036;5.906;2023-04-15T13:26:05;15.00;94.40
42031;DHT22;27709;52.036;5.906;2023-04-15T13:28:31;15.00;94.30
42031;DHT22;27709;52.036;5.906;2023-04-15T13:30:56;15.10;94.10
42031;DHT22;27709;52.036;5.906;2023-04-15T13:33:22;15.10;94.30
42031;DHT22;27709;52.036;5.906;2023-04-15T13:35:47;15.10;93.90
42031;DHT22;27709;52.036;5.906;2023-04-15T13:38:13;15.00;94.00
42031;DHT22;27709;52.036;5.906;2023-04-15T13:40:38;15.10;94.70
42031;DHT22;27709;52.036;5.906;2023-04-15T13:43:04;15.10;94.30
42031;DHT22;27709;52.036;5.906;2023-04-15T13:45:32;15.10;94.40
42031;DHT22;27709;52.036;5.906;2023-04-15T13:47:58;14.90;94.40
42031;DHT22;27709;52.036;5.906;2023-04-15T13:50:23;14.80;94.70
42031;DHT22;27709;52.036;5.906;2023-04-15T13:52:49;14.80;95.00
42031;DHT22;27709;52.036;5.906;2023-04-15T13:55:14;14.70;94.90
42031;DHT22;27709;52.036;5.906;2023-04-15T13:57:46;14.60;95.30
42031;DHT22;27709;52.036;5.906;2023-04-15T14:00:14;14.50;95.50
42031;DHT22;27709;52.036;5.906;2023-04-15T14:02:40;14.40;95.60
42031;DHT22;27709;52.036;5.906;2023-04-15T14:05:06;14.40;95.70
42031;DHT22;27709;52.036;5.906;2023-04-15T14:07:33;14.30;95.80
42031;DHT22;27709;52.036;5.906;2023-04-15T14:09:58;14.20;95.70
42031;DHT22;27709;52.036;5.906;2023-04-15T14:12:24;14.10;95.90
42031;DHT22;27709;52.036;5.906;2023-04-15T14:14:49;14.00;95.60
42031;DHT22;27709;52.036;5.906;2023-04-15T14:17:15;13.80;96.00
42031;DHT22;27709;52.036;5.906;2023-04-15T14:19:40;13.70;96.40
42031;DHT22;27709;52.036;5.906;2023-04-15T14:22:06;13.60;96.80
42031;DHT22;27709;52.036;5.906;2023-04-15T14:24:31;13.40;97.10
42031;DHT22;27709;52.036;5.906;2023-04-15T14:26:57;13.20;97.80
42031;DHT22;27709;52.036;5.906;2023-04-15T14:29:22;13.20;98.00
42031;DHT22;27709;52.036;5.906;2023-04-15T14:31:48;13.10;97.80
42031;DHT22;27709;52.036;5.906;2023-04-15T14:34:14;12.90;98.60
42031;DHT22;27709;52.036;5.906;2023-04-15T14:36:40;12.80;98.50
42031;DHT22;27709;52.036;5.906;2023-04-15T14:39:06;12.70;98.60
42031;DHT22;27709;52.036;5.906;2023-04-15T14:41:31;12.70;98.90
42031;DHT22;27709;52.036;5.906;2023-04-15T14:43:57;12.70;99.30
42031;DHT22;27709;52.036;5.906;2023-04-15T14:46:22;12.70;99.20
42031;DHT22;27709;52.036;5.906;2023-04-15T14:48:48;12.70;99.40
42031;DHT22;27709;52.036;5.906;2023-04-15T14:51:13;12.60;99.10
42031;DHT22;27709;52.036;5.906;2023-04-15T14:53:39;12.50;99.60
42031;DHT22;27709;52.036;5.906;2023-04-15T14:56:04;12.50;99.90
42031;DHT22;27709;52.036;5.906;2023-04-15T14:58:30;12.40;99.90
42031;DHT22;27709;52.036;5.906;2023-04-15T15:00:57;12.30;99.90
42031;DHT22;27709;52.036;5.906;2023-04-15T15:03:22;12.30;99.90
42031;DHT22;27709;52.036;5.906;2023-04-15T15:05:48;12.20;99.90
42031;DHT22;27709;52.036;5.906;2023-04-15T15:08:13;12.20;99.90
42031;DHT22;27709;52.036;5.906;2023-04-15T15:10:39;12.20;99.90
42031;DHT22;27709;52.036;5.906;2023-04-15T15:13:05;12.20;99.90
42031;DHT22;27709;52.036;5.906;2023-04-15T15:15:31;12.20;99.90
42031;DHT22;27709;52.036;5.906;2023-04-15T15:17:56;12.20;99.90
42031;DHT22;27709;52.036;5.906;2023-04-15T15:20:22;12.10;99.90
42031;DHT22;27709;52.036;5.906;2023-04-15T15:22:47;12.10;99.90
42031;DHT22;27709;52.036;5.906;2023-04-15T15:25:13;12.20;99.90
42031;DHT22;27709;52.036;5.906;2023-04-15T15:27:38;12.30;99.90
42031;DHT22;27709;52.036;5.906;2023-04-15T15:30:04;12.30;99.90
42031;DHT22;27709;52.036;5.906;2023-04-15T15:32:31;12.30;99.90
42031;DHT22;27709;52.036;5.906;2023-04-15T15:34:56;12.40;99.90
42031;DHT22;27709;52.036;5.906;2023-04-15T15:37:21;12.40;99.90
42031;DHT22;27709;52.036;5.906;2023-04-15T15:39:47;12.30;99.90